< < Back
Terminal Aerodrome Forecast


Current Version              Previous Versions:   1  2  3  4  5  6  7  8  9  

Terminal Aerodrome Forecast

834
FTUS42 KILM 211700
TAFILM
TAF
KILM 211725Z 2118/2218 29007KT P6SM SKC
     FM212300 23009KT P6SM SKC
     FM220500 30011G15KT P6SM SKC
     FM221100 33012G18KT P6SM SKC=

Latest METAR

399
SAUS70 KWBC 221500 RRW
MTRILM
METAR KILM 221453Z 33014KT 10SM CLR 16/07 A2998 RMK AO2 SLP151 T01560067
50009


USA.gov is the U.S. government's official web portal to all federal, state and local government web resources and services.